createdAt,value
2022-12-18T00:02:39.682Z,93.08
2022-12-18T00:06:43.083Z,92.88
2022-12-18T00:10:48.200Z,93.21
2022-12-18T00:14:52.196Z,93.08
2022-12-18T00:18:57.648Z,93.24
2022-12-18T00:23:00.322Z,93.18
2022-12-18T00:27:03.021Z,93.02
2022-12-18T00:31:09.316Z,93.20
2022-12-18T00:35:12.199Z,92.98
2022-12-18T00:39:14.823Z,92.95
2022-12-18T00:43:17.532Z,93.43
2022-12-18T00:47:21.588Z,93.57
2022-12-18T00:51:24.246Z,93.13
2022-12-18T00:55:26.915Z,93.69
2022-12-18T00:59:30.956Z,92.91
2022-12-18T01:03:35.368Z,93.36
2022-12-18T01:07:38.130Z,93.09
2022-12-18T01:11:41.898Z,93.16
2022-12-18T01:15:50.679Z,93.75
2022-12-18T01:19:56.625Z,93.20
2022-12-18T01:23:59.297Z,93.09
2022-12-18T01:28:02.687Z,93.45
2022-12-18T01:32:05.851Z,92.97
2022-12-18T01:36:10.937Z,92.97
2022-12-18T01:40:13.998Z,92.50
2022-12-18T01:44:53.726Z,93.24
2022-12-18T01:48:59.901Z,92.76
2022-12-18T01:53:08.055Z,92.58
2022-12-18T01:57:11.145Z,92.61
2022-12-18T02:01:14.382Z,92.93
2022-12-18T02:05:19.840Z,92.88
2022-12-18T02:09:30.800Z,92.77
2022-12-18T02:13:40.689Z,92.84
2022-12-18T02:17:49.776Z,92.84
2022-12-18T02:21:59.414Z,92.76
2022-12-18T02:26:16.504Z,92.55
2022-12-18T02:30:20.740Z,92.30
2022-12-18T02:34:28.132Z,92.80
2022-12-18T02:38:32.523Z,92.16
2022-12-18T02:42:36.792Z,91.95
2022-12-18T02:46:42.176Z,91.97
2022-12-18T02:50:50.883Z,92.69
2022-12-18T02:55:09.052Z,92.12
2022-12-18T02:59:19.795Z,92.13
2022-12-18T03:03:31.415Z,91.57
2022-12-18T03:07:40.011Z,91.49
2022-12-18T03:12:04.991Z,92.00
2022-12-18T03:16:14.081Z,92.21
2022-12-18T03:20:21.738Z,91.89
2022-12-18T03:24:26.261Z,91.93
2022-12-18T03:28:33.578Z,92.11
2022-12-18T03:32:45.178Z,91.74
2022-12-18T03:36:48.079Z,92.53
2022-12-18T03:40:58.062Z,91.94
2022-12-18T03:45:08.987Z,92.31
2022-12-18T03:49:19.404Z,91.99
2022-12-18T03:53:30.917Z,92.48
2022-12-18T03:57:35.139Z,91.97
2022-12-18T04:01:41.980Z,92.49
2022-12-18T04:05:47.729Z,91.67
2022-12-18T04:09:52.244Z,91.82
2022-12-18T04:13:58.309Z,91.68
2022-12-18T04:18:00.989Z,91.99
2022-12-18T04:22:04.996Z,91.84
2022-12-18T04:26:08.074Z,92.27
2022-12-18T04:30:11.504Z,91.79
2022-12-18T04:34:14.173Z,91.55
2022-12-18T04:38:18.213Z,92.04
2022-12-18T04:42:20.838Z,91.23
2022-12-18T04:46:23.560Z,91.33
2022-12-18T04:50:26.316Z,91.71
2022-12-18T04:54:30.330Z,91.72
2022-12-18T04:58:33.000Z,91.32
2022-12-18T05:02:35.828Z,91.74
2022-12-18T05:06:38.528Z,91.47
2022-12-18T05:10:42.608Z,91.89
2022-12-18T05:14:45.239Z,91.86
2022-12-18T05:18:47.891Z,91.26
2022-12-18T05:22:50.630Z,91.25
2022-12-18T05:26:54.615Z,91.13
2022-12-18T05:30:59.352Z,91.37
2022-12-18T05:35:02.047Z,91.06
2022-12-18T05:39:04.983Z,91.86
2022-12-18T05:43:10.079Z,91.46
2022-12-18T05:47:12.765Z,91.54
2022-12-18T05:51:17.353Z,91.63
2022-12-18T05:55:19.980Z,91.70
2022-12-18T05:59:23.935Z,91.80
2022-12-18T06:03:32.187Z,92.15
2022-12-18T06:07:36.396Z,92.22
2022-12-18T06:11:39.515Z,91.86
2022-12-18T06:15:43.550Z,91.59
2022-12-18T06:19:46.150Z,92.04
2022-12-18T06:23:48.829Z,91.42
2022-12-18T06:27:51.467Z,91.17
2022-12-18T06:31:55.587Z,91.62
2022-12-18T06:36:02.677Z,91.77
2022-12-18T06:40:06.236Z,91.80
2022-12-18T06:44:08.915Z,91.30
2022-12-18T06:48:13.556Z,91.76
2022-12-18T06:52:16.175Z,91.72
2022-12-18T06:56:18.863Z,92.10
2022-12-18T07:00:21.506Z,91.47
2022-12-18T07:04:29.872Z,94.23
2022-12-18T07:08:32.685Z,93.81
2022-12-18T07:12:35.432Z,92.25
2022-12-18T07:16:38.117Z,91.22
2022-12-18T07:20:42.105Z,91.72
2022-12-18T07:24:44.749Z,91.32
2022-12-18T07:28:48.200Z,90.68
2022-12-18T07:32:50.833Z,90.83
2022-12-18T07:36:54.835Z,90.86
2022-12-18T07:41:02.563Z,90.94
2022-12-18T07:45:06.056Z,90.08
2022-12-18T07:49:09.020Z,90.80
2022-12-18T07:53:13.033Z,91.09
2022-12-18T07:57:48.442Z,91.25
2022-12-18T08:01:40.177Z,90.96
2022-12-18T08:05:42.928Z,91.13
2022-12-18T08:09:46.921Z,91.15
2022-12-18T08:13:49.673Z,91.09
2022-12-18T08:17:52.509Z,90.64
2022-12-18T08:21:55.229Z,93.08
2022-12-18T08:26:00.271Z,91.37
2022-12-18T08:30:03.833Z,90.37
2022-12-18T08:34:07.026Z,89.62
2022-12-18T08:38:09.623Z,89.43
2022-12-18T08:42:30.919Z,89.52
2022-12-18T08:46:37.214Z,88.28
2022-12-18T08:50:39.980Z,88.59
2022-12-18T08:54:42.636Z,89.32
2022-12-18T08:58:46.658Z,88.90
2022-12-18T09:02:49.395Z,88.72
2022-12-18T09:06:52.325Z,88.97
2022-12-18T09:10:55.247Z,89.03
2022-12-18T09:14:59.345Z,89.06
2022-12-18T09:19:02.895Z,89.17
2022-12-18T09:23:06.305Z,88.59
2022-12-18T09:27:08.954Z,88.62
2022-12-18T09:31:18.100Z,88.64
2022-12-18T09:35:20.832Z,88.90
2022-12-18T09:39:24.420Z,88.65
2022-12-18T09:43:32.563Z,88.50
2022-12-18T09:47:41.313Z,88.84
2022-12-18T09:51:49.335Z,88.76
2022-12-18T09:55:54.085Z,88.53
2022-12-18T10:00:01.183Z,87.91
2022-12-18T10:04:07.531Z,87.00
2022-12-18T10:08:15.660Z,87.27
2022-12-18T10:12:26.721Z,87.10
2022-12-18T10:16:42.627Z,87.81
2022-12-18T10:20:51.200Z,87.21
2022-12-18T10:25:00.736Z,87.42
2022-12-18T10:29:05.800Z,87.80
2022-12-18T10:33:13.395Z,87.04
2022-12-18T10:37:20.406Z,86.24
2022-12-18T10:41:27.827Z,87.00
2022-12-18T10:45:32.144Z,86.40
2022-12-18T10:49:37.020Z,85.96
2022-12-18T10:53:43.706Z,86.13
2022-12-18T10:57:46.513Z,86.53
2022-12-18T11:01:52.188Z,85.88
2022-12-18T11:06:04.357Z,86.00
2022-12-18T11:10:19.370Z,86.28
2022-12-18T11:14:25.462Z,85.66
2022-12-18T11:18:31.816Z,85.59
2022-12-18T11:22:37.155Z,85.46
2022-12-18T11:26:44.264Z,85.60
2022-12-18T11:30:47.577Z,85.68
2022-12-18T11:34:59.032Z,85.77
2022-12-18T11:39:07.931Z,85.95
2022-12-18T11:43:16.907Z,85.14
2022-12-18T11:47:29.379Z,85.15
2022-12-18T11:51:37.300Z,85.96
2022-12-18T11:55:49.562Z,84.77
2022-12-18T12:00:02.091Z,84.90
2022-12-18T12:04:26.954Z,84.71
2022-12-18T12:08:42.812Z,84.06
2022-12-18T12:13:06.527Z,84.02
2022-12-18T12:17:19.972Z,84.29
2022-12-18T12:21:30.569Z,84.27
2022-12-18T12:25:42.749Z,84.41
2022-12-18T12:29:57.125Z,84.60
2022-12-18T12:34:10.841Z,84.03
2022-12-18T12:38:17.878Z,84.26
2022-12-18T12:42:50.789Z,84.05
2022-12-18T12:46:54.670Z,84.91
2022-12-18T12:51:00.504Z,84.91
2022-12-18T12:55:10.267Z,84.95
2022-12-18T12:59:25.149Z,84.78
2022-12-18T13:03:43.291Z,83.92
2022-12-18T13:07:54.186Z,83.88
2022-12-18T13:12:22.376Z,84.00
2022-12-18T13:16:26.879Z,83.99
2022-12-18T13:20:36.596Z,84.66
2022-12-18T13:24:40.623Z,84.83
2022-12-18T13:28:55.920Z,84.08
2022-12-18T13:34:02.019Z,84.82
2022-12-18T13:38:22.357Z,84.26
2022-12-18T13:42:59.915Z,84.22
2022-12-18T13:47:04.572Z,84.72
2022-12-18T13:51:10.070Z,85.69
2022-12-18T13:55:20.358Z,85.55
2022-12-18T13:59:26.446Z,85.65
2022-12-18T14:03:31.352Z,85.48
2022-12-18T14:07:39.914Z,85.61
2022-12-18T14:12:16.302Z,85.26
2022-12-18T14:16:22.173Z,85.23
2022-12-18T14:20:26.203Z,84.28
2022-12-18T14:24:38.325Z,84.00
2022-12-18T14:28:45.583Z,84.35
2022-12-18T14:33:03.787Z,83.49
2022-12-18T14:37:07.916Z,84.75
2022-12-18T14:41:15.580Z,84.60
2022-12-18T14:45:43.431Z,83.85
2022-12-18T14:49:47.794Z,84.49
2022-12-18T14:53:56.190Z,86.90
2022-12-18T14:57:59.773Z,85.15
2022-12-18T15:02:11.505Z,84.26
2022-12-18T15:06:26.278Z,84.28
2022-12-18T15:10:31.900Z,93.94
2022-12-18T15:14:40.618Z,95.38
2022-12-18T15:18:46.119Z,95.31
2022-12-18T15:22:50.221Z,94.69
2022-12-18T15:26:52.945Z,93.94
2022-12-18T15:31:07.984Z,93.14
2022-12-18T15:35:16.833Z,90.92
2022-12-18T15:39:20.867Z,89.02
2022-12-18T15:43:37.742Z,88.71
2022-12-18T15:47:40.732Z,87.44
2022-12-18T15:51:43.510Z,86.04
2022-12-18T15:56:06.910Z,86.22
2022-12-18T16:00:14.187Z,85.21
2022-12-18T16:04:19.515Z,84.71
2022-12-18T16:08:22.256Z,84.75
2022-12-18T16:12:26.513Z,84.37
2022-12-18T16:16:29.245Z,84.95
2022-12-18T16:20:32.598Z,84.66
2022-12-18T16:24:37.070Z,84.65
2022-12-18T16:28:45.299Z,84.53
2022-12-18T16:32:51.490Z,84.78
2022-12-18T16:36:56.209Z,85.12
2022-12-18T16:41:19.507Z,84.10
2022-12-18T16:45:23.564Z,84.55
2022-12-18T16:49:26.222Z,84.55
2022-12-18T16:53:29.968Z,84.44
2022-12-18T16:57:32.751Z,84.32
2022-12-18T17:01:36.907Z,84.89
2022-12-18T17:05:39.637Z,83.94
2022-12-18T17:09:42.376Z,84.60
2022-12-18T17:13:45.204Z,84.48
2022-12-18T17:17:50.266Z,84.36
2022-12-18T17:21:53.221Z,84.27
2022-12-18T17:25:57.109Z,84.29
2022-12-18T17:29:59.743Z,84.35
2022-12-18T17:34:04.677Z,84.83
2022-12-18T17:38:07.361Z,84.17
2022-12-18T17:42:14.956Z,84.01
2022-12-18T17:46:18.427Z,84.64
2022-12-18T17:50:22.443Z,83.88
2022-12-18T17:54:25.183Z,83.70
2022-12-18T17:58:28.112Z,83.77
2022-12-18T18:02:31.145Z,83.64
2022-12-18T18:06:36.272Z,84.49
2022-12-18T18:10:42.738Z,83.69
2022-12-18T18:14:45.382Z,84.22
2022-12-18T18:18:48.347Z,84.11
2022-12-18T18:22:52.488Z,84.57
2022-12-18T18:26:59.523Z,84.72
2022-12-18T18:31:05.985Z,84.55
2022-12-18T18:35:19.347Z,85.25
2022-12-18T18:39:33.554Z,86.91
2022-12-18T18:43:36.939Z,87.82
2022-12-18T18:47:39.557Z,88.37
2022-12-18T18:51:42.960Z,89.18
2022-12-18T18:55:55.155Z,88.95
2022-12-18T19:00:08.123Z,88.54
2022-12-18T19:04:11.176Z,88.98
2022-12-18T19:08:13.800Z,88.49
2022-12-18T19:12:38.468Z,88.74
2022-12-18T19:16:45.450Z,89.22
2022-12-18T19:20:56.596Z,89.82
2022-12-18T19:24:59.470Z,89.71
2022-12-18T19:29:04.369Z,90.35
2022-12-18T19:33:26.770Z,90.79
2022-12-18T19:37:30.311Z,90.60
2022-12-18T19:41:33.073Z,90.54
2022-12-18T19:45:39.758Z,90.93
2022-12-18T19:49:42.559Z,91.38
2022-12-18T19:53:45.868Z,91.27
2022-12-18T19:57:48.782Z,91.05
2022-12-18T20:01:54.829Z,91.04
2022-12-18T20:05:58.042Z,92.00
2022-12-18T20:10:08.484Z,91.50
2022-12-18T20:14:12.518Z,91.53
2022-12-18T20:18:16.588Z,91.84
2022-12-18T20:22:20.466Z,91.70
2022-12-18T20:26:23.265Z,92.11
2022-12-18T20:30:26.151Z,91.57
2022-12-18T20:34:30.361Z,91.47
2022-12-18T20:38:34.543Z,91.77
2022-12-18T20:42:37.799Z,92.28
2022-12-18T20:46:40.495Z,92.07
2022-12-18T20:50:44.470Z,92.07
2022-12-18T20:54:47.278Z,92.52
2022-12-18T20:58:51.300Z,91.75
2022-12-18T21:02:57.903Z,92.00
2022-12-18T21:07:02.954Z,91.34
2022-12-18T21:11:30.771Z,91.23
2022-12-18T21:15:33.552Z,91.53
2022-12-18T21:19:36.500Z,91.22
2022-12-18T21:23:40.582Z,91.60
2022-12-18T21:27:43.247Z,91.24
2022-12-18T21:31:46.557Z,91.01
2022-12-18T21:35:49.291Z,91.09
2022-12-18T21:39:53.366Z,91.00
2022-12-18T21:44:08.200Z,90.82
2022-12-18T21:48:12.174Z,91.65
2022-12-18T21:52:14.949Z,91.04
2022-12-18T21:56:19.029Z,90.77
2022-12-18T22:00:21.835Z,91.22
2022-12-18T22:04:25.605Z,91.10
2022-12-18T22:08:28.497Z,90.90
2022-12-18T22:12:44.219Z,90.47
2022-12-18T22:16:48.986Z,91.03
2022-12-18T22:21:01.982Z,90.52
2022-12-18T22:25:05.071Z,90.61
2022-12-18T22:29:44.109Z,90.35
2022-12-18T22:33:46.769Z,90.66
2022-12-18T22:37:49.509Z,90.41
2022-12-18T22:41:52.888Z,90.76
2022-12-18T22:45:56.936Z,90.15
2022-12-18T22:49:59.895Z,90.52
2022-12-18T22:54:02.503Z,90.46
2022-12-18T22:58:05.183Z,90.02
2022-12-18T23:02:09.474Z,90.28
2022-12-18T23:06:12.409Z,90.43
2022-12-18T23:10:15.047Z,90.38
2022-12-18T23:14:17.978Z,90.86
2022-12-18T23:18:22.378Z,91.13
2022-12-18T23:22:25.006Z,90.90
2022-12-18T23:26:28.554Z,90.82
2022-12-18T23:30:32.448Z,90.74
2022-12-18T23:34:36.543Z,90.82
2022-12-18T23:38:39.829Z,90.54
2022-12-18T23:42:42.455Z,90.92
2022-12-18T23:46:45.112Z,90.71
2022-12-18T23:50:49.112Z,90.83
2022-12-18T23:54:51.765Z,90.59
2022-12-18T23:58:54.497Z,90.29
